createdAt,value
2022-12-03T00:01:48.194Z,20.98
2022-12-03T00:04:14.935Z,20.48
2022-12-03T00:06:41.774Z,28.58
2022-12-03T00:09:08.514Z,30.02
2022-12-03T00:11:35.362Z,34.13
2022-12-03T00:14:02.113Z,29.27
2022-12-03T00:16:29.058Z,34.17
2022-12-03T00:18:55.890Z,29.58
2022-12-03T00:21:24.609Z,31.55
2022-12-03T00:23:51.785Z,37.63
2022-12-03T00:26:18.613Z,31.60
2022-12-03T00:28:45.358Z,33.55
2022-12-03T00:31:13.486Z,30.17
2022-12-03T00:33:40.249Z,29.80
2022-12-03T00:36:07.483Z,31.13
2022-12-03T00:38:34.320Z,26.52
2022-12-03T00:41:01.152Z,26.45
2022-12-03T00:43:27.920Z,22.08
2022-12-03T00:45:54.776Z,21.90
2022-12-03T00:48:21.572Z,26.20
2022-12-03T00:50:48.419Z,25.30
2022-12-03T00:53:15.148Z,19.85
2022-12-03T00:55:41.935Z,19.45
2022-12-03T00:58:09.532Z,17.38
2022-12-03T01:00:36.858Z,18.48
2022-12-03T01:03:04.497Z,16.42
2022-12-03T01:05:31.393Z,17.17
2022-12-03T01:07:58.145Z,13.60
2022-12-03T01:10:24.975Z,14.23
2022-12-03T01:12:51.730Z,12.10
2022-12-03T01:15:18.580Z,11.40
2022-12-03T01:17:45.328Z,9.52
2022-12-03T01:20:12.688Z,8.80
2022-12-03T01:22:39.529Z,8.25
2022-12-03T01:25:06.787Z,8.95
2022-12-03T01:27:33.505Z,8.48
2022-12-03T01:30:00.292Z,7.25
2022-12-03T01:32:27.095Z,7.43
2022-12-03T01:34:56.050Z,7.45
2022-12-03T01:37:25.272Z,9.85
2022-12-03T01:39:52.184Z,7.55
2022-12-03T01:42:23.633Z,9.40
2022-12-03T01:44:56.122Z,8.02
2022-12-03T01:47:33.172Z,7.50
2022-12-03T01:50:04.817Z,6.80
2022-12-03T01:52:37.052Z,5.80
2022-12-03T01:55:08.044Z,7.40
2022-12-03T01:57:46.025Z,9.25
2022-12-03T02:00:15.346Z,10.10
2022-12-03T02:02:42.570Z,9.68
2022-12-03T02:05:18.123Z,7.72
2022-12-03T02:07:45.185Z,6.75
2022-12-03T02:10:14.137Z,6.63
2022-12-03T02:12:47.734Z,6.15
2022-12-03T02:15:15.050Z,7.53
2022-12-03T02:17:43.035Z,5.85
2022-12-03T02:20:11.646Z,8.15
2022-12-03T02:22:47.967Z,8.00
2022-12-03T02:25:18.303Z,6.82
2022-12-03T02:27:45.777Z,5.28
2022-12-03T02:30:17.334Z,6.47
2022-12-03T02:32:44.370Z,6.13
2022-12-03T02:35:20.540Z,3.70
2022-12-03T02:37:50.893Z,4.13
2022-12-03T02:40:24.848Z,4.32
2022-12-03T02:42:55.529Z,3.70
2022-12-03T02:45:36.096Z,4.00
2022-12-03T02:48:08.667Z,4.22
2022-12-03T02:50:42.486Z,3.97
2022-12-03T02:53:17.393Z,4.68
2022-12-03T02:55:44.936Z,7.85
2022-12-03T02:58:12.213Z,10.13
2022-12-03T03:00:39.860Z,12.63
2022-12-03T03:03:08.612Z,12.68
2022-12-03T03:05:38.581Z,12.25
2022-12-03T03:08:08.132Z,11.75
2022-12-03T03:10:37.321Z,9.75
2022-12-03T03:13:08.957Z,9.23
2022-12-03T03:15:37.325Z,10.75
2022-12-03T03:18:05.623Z,11.70
2022-12-03T03:20:32.469Z,11.48
2022-12-03T03:23:12.899Z,11.05
2022-12-03T03:25:42.470Z,10.60
2022-12-03T03:28:09.922Z,9.40
2022-12-03T03:30:52.185Z,6.90
2022-12-03T03:33:19.182Z,5.10
2022-12-03T03:35:48.116Z,5.68
2022-12-03T03:38:18.886Z,5.70
2022-12-03T03:40:48.165Z,5.25
2022-12-03T03:43:15.028Z,3.97
2022-12-03T03:45:42.775Z,4.15
2022-12-03T03:48:10.489Z,3.75
2022-12-03T03:50:37.611Z,4.82
2022-12-03T03:53:05.812Z,4.45
2022-12-03T03:55:33.754Z,4.40
2022-12-03T03:58:01.028Z,3.65
2022-12-03T04:00:27.995Z,3.58
2022-12-03T04:02:54.798Z,3.20
2022-12-03T04:05:23.846Z,3.30
2022-12-03T04:07:51.086Z,4.13
2022-12-03T04:10:36.343Z,4.70
2022-12-03T04:13:03.904Z,3.75
2022-12-03T04:15:30.920Z,3.58
2022-12-03T04:18:17.669Z,3.78
2022-12-03T04:20:44.552Z,3.72
2022-12-03T04:23:11.350Z,3.00
2022-12-03T04:25:56.867Z,3.08
2022-12-03T04:28:42.391Z,4.35
2022-12-03T04:31:27.739Z,4.50
2022-12-03T04:34:13.260Z,3.60
2022-12-03T04:36:40.078Z,3.45
2022-12-03T04:39:06.826Z,3.58
2022-12-03T04:41:33.651Z,3.53
2022-12-03T04:44:18.984Z,4.57
2022-12-03T04:46:45.779Z,3.50
2022-12-03T04:49:12.775Z,4.55
2022-12-03T04:51:39.637Z,4.63
2022-12-03T04:54:06.446Z,4.40
2022-12-03T04:56:33.321Z,5.15
2022-12-03T04:59:00.078Z,4.95
2022-12-03T05:01:27.047Z,4.93
2022-12-03T05:03:53.756Z,4.88
2022-12-03T05:06:20.803Z,5.90
2022-12-03T05:08:47.643Z,6.75
2022-12-03T05:11:14.698Z,6.68
2022-12-03T05:13:43.093Z,6.65
2022-12-03T05:16:10.334Z,6.93
2022-12-03T05:18:37.112Z,7.30
2022-12-03T05:21:04.090Z,6.93
2022-12-03T05:23:32.158Z,7.68
2022-12-03T05:25:58.954Z,6.53
2022-12-03T05:28:25.757Z,6.10
2022-12-03T05:30:52.876Z,7.65
2022-12-03T05:33:20.509Z,6.88
2022-12-03T05:35:47.703Z,8.48
2022-12-03T05:38:14.388Z,9.35
2022-12-03T05:40:41.276Z,9.32
2022-12-03T05:43:08.360Z,10.98
2022-12-03T05:45:37.408Z,7.75
2022-12-03T05:48:06.555Z,9.43
2022-12-03T05:50:35.514Z,9.57
2022-12-03T05:53:15.275Z,9.32
2022-12-03T05:55:42.221Z,8.65
2022-12-03T05:58:09.589Z,9.15
2022-12-03T06:00:42.449Z,7.95
2022-12-03T06:03:10.746Z,7.45
2022-12-03T06:05:37.855Z,6.38
2022-12-03T06:08:05.078Z,6.30
2022-12-03T06:10:32.623Z,6.28
2022-12-03T06:12:59.561Z,4.10
2022-12-03T06:15:26.309Z,5.18
2022-12-03T06:17:53.684Z,4.45
2022-12-03T06:20:20.811Z,4.50
2022-12-03T06:22:48.224Z,3.97
2022-12-03T06:25:15.678Z,4.25
2022-12-03T06:27:42.643Z,3.35
2022-12-03T06:30:12.812Z,3.53
2022-12-03T06:32:39.568Z,4.63
2022-12-03T06:35:06.783Z,4.10
2022-12-03T06:37:33.652Z,3.22
2022-12-03T06:40:00.384Z,3.33
2022-12-03T06:42:27.377Z,3.83
2022-12-03T06:44:54.314Z,4.50
2022-12-03T06:47:21.402Z,4.30
2022-12-03T06:49:48.134Z,3.53
2022-12-03T06:52:15.036Z,3.45
2022-12-03T06:54:41.961Z,3.35
2022-12-03T06:57:08.738Z,2.45
2022-12-03T06:59:37.607Z,2.47
2022-12-03T07:02:05.387Z,2.50
2022-12-03T07:04:32.153Z,3.20
2022-12-03T07:06:58.962Z,2.35
2022-12-03T07:09:25.770Z,2.10
2022-12-03T07:11:52.676Z,1.70
2022-12-03T07:14:20.959Z,1.85
2022-12-03T07:16:47.862Z,1.20
2022-12-03T07:19:14.733Z,1.30
2022-12-03T07:21:41.831Z,1.33
2022-12-03T07:24:09.149Z,1.45
2022-12-03T07:26:36.242Z,1.55
2022-12-03T07:29:03.503Z,1.83
2022-12-03T07:31:30.660Z,3.15
2022-12-03T07:33:57.453Z,3.25
2022-12-03T07:36:24.232Z,3.60
2022-12-03T07:38:51.015Z,3.75
2022-12-03T07:41:17.840Z,3.25
2022-12-03T07:43:45.307Z,4.13
2022-12-03T07:46:12.260Z,4.45
2022-12-03T07:48:39.098Z,4.03
2022-12-03T07:51:06.056Z,4.97
2022-12-03T07:53:33.009Z,4.35
2022-12-03T07:55:59.881Z,4.72
2022-12-03T07:58:26.606Z,3.63
2022-12-03T08:00:53.726Z,3.55
2022-12-03T08:03:20.501Z,3.50
2022-12-03T08:05:47.404Z,3.20
2022-12-03T08:08:14.377Z,2.83
2022-12-03T08:10:41.226Z,3.13
2022-12-03T08:13:13.852Z,4.65
2022-12-03T08:15:40.765Z,6.53
2022-12-03T08:18:19.219Z,6.95
2022-12-03T08:20:48.450Z,6.45
2022-12-03T08:23:23.402Z,7.97
2022-12-03T08:25:51.931Z,8.52
2022-12-03T08:28:21.328Z,6.65
2022-12-03T08:31:05.864Z,7.10
2022-12-03T08:33:35.597Z,7.45
2022-12-03T08:36:29.271Z,8.95
2022-12-03T08:38:59.609Z,6.32
2022-12-03T08:41:45.299Z,6.97
2022-12-03T08:44:29.121Z,6.80
2022-12-03T08:47:09.564Z,6.85
2022-12-03T08:49:37.522Z,4.47
2022-12-03T08:52:15.075Z,3.35
2022-12-03T08:54:43.246Z,3.45
2022-12-03T08:57:36.150Z,3.20
2022-12-03T09:00:21.654Z,3.97
2022-12-03T09:02:51.627Z,3.65
2022-12-03T09:05:30.912Z,7.28
2022-12-03T09:07:59.423Z,8.90
2022-12-03T09:10:26.285Z,7.20
2022-12-03T09:12:53.240Z,7.72
2022-12-03T09:15:20.167Z,7.75
2022-12-03T09:17:49.905Z,15.00
2022-12-03T09:20:16.905Z,15.68
2022-12-03T09:22:43.727Z,11.77
2022-12-03T09:25:10.602Z,10.15
2022-12-03T09:27:37.355Z,8.52
2022-12-03T09:30:05.455Z,6.50
2022-12-03T09:32:32.368Z,6.47
2022-12-03T09:34:59.251Z,6.47
2022-12-03T09:37:26.042Z,6.25
2022-12-03T09:39:52.875Z,3.30
2022-12-03T09:42:19.621Z,2.22
2022-12-03T09:44:46.556Z,3.17
2022-12-03T09:47:13.510Z,3.50
2022-12-03T09:49:40.756Z,3.67
2022-12-03T09:52:07.955Z,3.30
2022-12-03T09:54:35.416Z,3.00
2022-12-03T09:57:04.278Z,4.10
2022-12-03T09:59:33.536Z,5.07
2022-12-03T10:02:01.584Z,3.88
2022-12-03T10:04:29.821Z,4.53
2022-12-03T10:06:58.337Z,2.53
2022-12-03T10:09:28.276Z,3.17
2022-12-03T10:11:57.442Z,2.42
2022-12-03T10:14:24.533Z,6.00
2022-12-03T10:16:51.604Z,7.97
2022-12-03T10:19:39.696Z,11.63
2022-12-03T10:22:06.585Z,8.10
2022-12-03T10:24:35.487Z,8.95
2022-12-03T10:27:05.282Z,8.40
2022-12-03T10:29:34.957Z,32.97
2022-12-03T10:32:10.451Z,42.08
2022-12-03T10:34:42.055Z,17.52
2022-12-03T10:37:17.991Z,14.27
2022-12-03T10:40:21.372Z,11.20
2022-12-03T10:42:48.140Z,11.27
2022-12-03T10:45:20.592Z,10.68
2022-12-03T10:48:21.428Z,12.70
2022-12-03T10:50:59.489Z,12.30
2022-12-03T10:53:29.905Z,9.68
2022-12-03T10:55:59.773Z,7.53
2022-12-03T10:58:34.134Z,6.93
2022-12-03T11:01:06.399Z,6.60
2022-12-03T11:03:37.053Z,7.35
2022-12-03T11:06:04.071Z,6.60
2022-12-03T11:08:35.797Z,7.00
2022-12-03T11:11:04.820Z,6.20
2022-12-03T11:13:35.838Z,7.35
2022-12-03T11:16:05.672Z,8.10
2022-12-03T11:18:38.643Z,6.80
2022-12-03T11:21:14.518Z,5.32
2022-12-03T11:23:44.300Z,9.20
2022-12-03T11:26:37.283Z,10.15
2022-12-03T11:29:13.131Z,7.97
2022-12-03T11:31:47.592Z,6.82
2022-12-03T11:34:20.623Z,5.28
2022-12-03T11:37:12.446Z,6.78
2022-12-03T11:39:47.999Z,6.22
2022-12-03T11:42:26.754Z,5.68
2022-12-03T11:45:02.747Z,9.32
2022-12-03T11:47:32.966Z,12.88
2022-12-03T11:50:00.826Z,9.25
2022-12-03T11:52:38.579Z,10.70
2022-12-03T11:55:17.828Z,6.85
2022-12-03T11:57:45.330Z,6.32
2022-12-03T12:00:21.868Z,8.30
2022-12-03T12:02:50.301Z,9.73
2022-12-03T12:05:22.301Z,10.75
2022-12-03T12:07:50.252Z,12.13
2022-12-03T12:10:46.816Z,10.43
2022-12-03T12:13:31.825Z,12.30
2022-12-03T12:16:00.402Z,13.63
2022-12-03T12:18:42.238Z,13.18
2022-12-03T12:21:43.115Z,12.35
2022-12-03T12:24:41.274Z,10.20
2022-12-03T12:27:10.712Z,12.70
2022-12-03T12:29:39.352Z,12.68
2022-12-03T12:32:09.286Z,13.45
2022-12-03T12:34:44.726Z,16.50
2022-12-03T12:37:21.685Z,17.63
2022-12-03T12:39:54.478Z,31.65
2022-12-03T12:42:29.414Z,29.42
2022-12-03T12:45:14.460Z,24.15
2022-12-03T12:48:15.446Z,19.50
2022-12-03T12:50:46.187Z,18.92
2022-12-03T12:53:25.083Z,16.77
2022-12-03T12:56:06.712Z,19.20
2022-12-03T12:58:34.445Z,22.48
2022-12-03T13:01:17.952Z,17.98
2022-12-03T13:03:44.981Z,22.38
2022-12-03T13:06:16.204Z,20.35
2022-12-03T13:08:45.588Z,17.23
2022-12-03T13:11:38.841Z,14.75
2022-12-03T13:14:23.583Z,16.42
2022-12-03T13:16:52.460Z,15.75
2022-12-03T13:19:28.576Z,12.18
2022-12-03T13:21:58.043Z,10.65
2022-12-03T13:24:41.335Z,13.80
2022-12-03T13:27:17.517Z,14.55
2022-12-03T13:29:45.119Z,15.93
2022-12-03T13:32:19.707Z,13.82
2022-12-03T13:34:47.545Z,12.60
2022-12-03T13:37:18.805Z,13.90
2022-12-03T13:39:50.454Z,12.82
2022-12-03T13:42:46.098Z,11.30
2022-12-03T13:45:15.684Z,14.55
2022-12-03T13:48:00.743Z,13.90
2022-12-03T13:50:38.727Z,12.60
2022-12-03T13:53:11.352Z,13.73
2022-12-03T13:55:42.891Z,15.63
2022-12-03T13:58:09.784Z,16.48
2022-12-03T14:00:36.622Z,17.02
2022-12-03T14:03:03.713Z,17.70
2022-12-03T14:05:30.680Z,17.55
2022-12-03T14:08:02.365Z,16.55
2022-12-03T14:10:29.757Z,20.65
2022-12-03T14:12:57.161Z,15.50
2022-12-03T14:15:25.048Z,18.15
2022-12-03T14:17:52.010Z,17.38
2022-12-03T14:20:19.310Z,18.60
2022-12-03T14:22:46.200Z,20.02
2022-12-03T14:25:13.117Z,20.98
2022-12-03T14:27:39.963Z,16.08
2022-12-03T14:30:07.534Z,16.90
2022-12-03T14:32:34.246Z,14.00
2022-12-03T14:35:05.131Z,13.48
2022-12-03T14:37:35.347Z,14.18
2022-12-03T14:40:03.840Z,12.18
2022-12-03T14:42:30.914Z,15.93
2022-12-03T14:44:57.824Z,14.55
2022-12-03T14:47:24.698Z,15.60
2022-12-03T14:49:52.772Z,17.30
2022-12-03T14:52:20.561Z,16.20
2022-12-03T14:54:47.271Z,17.25
2022-12-03T14:57:15.563Z,17.25
2022-12-03T14:59:43.692Z,17.40
2022-12-03T15:02:11.869Z,21.65
2022-12-03T15:04:39.941Z,20.17
2022-12-03T15:07:07.108Z,20.60
2022-12-03T15:09:34.011Z,18.42
2022-12-03T15:12:02.753Z,18.98
2022-12-03T15:14:29.567Z,15.98
2022-12-03T15:16:56.497Z,16.13
2022-12-03T15:19:23.271Z,15.27
2022-12-03T15:21:50.125Z,14.10
2022-12-03T15:24:17.151Z,15.40
2022-12-03T15:26:48.740Z,16.60
2022-12-03T15:29:19.665Z,14.40
2022-12-03T15:31:46.530Z,14.57
2022-12-03T15:34:17.364Z,16.63
2022-12-03T15:36:48.336Z,12.25
2022-12-03T15:39:15.063Z,13.07
2022-12-03T15:41:41.926Z,17.98
2022-12-03T15:44:09.221Z,14.02
2022-12-03T15:46:36.528Z,21.05
2022-12-03T15:49:03.409Z,19.40
2022-12-03T15:51:30.334Z,23.05
2022-12-03T15:53:57.230Z,15.57
2022-12-03T15:56:24.162Z,18.08
2022-12-03T15:58:51.151Z,17.63
2022-12-03T16:01:18.470Z,16.10
2022-12-03T16:03:45.427Z,19.33
2022-12-03T16:06:12.779Z,28.45
2022-12-03T16:08:39.521Z,38.78
2022-12-03T16:11:06.485Z,32.78
2022-12-03T16:13:33.479Z,27.40
2022-12-03T16:16:00.531Z,22.55
2022-12-03T16:18:27.485Z,17.92
2022-12-03T16:20:54.545Z,14.43
2022-12-03T16:23:21.468Z,15.68
2022-12-03T16:25:48.562Z,18.00
2022-12-03T16:28:15.663Z,22.13
2022-12-03T16:30:42.854Z,29.33
2022-12-03T16:33:09.823Z,31.63
2022-12-03T16:35:38.291Z,32.15
2022-12-03T16:38:05.354Z,35.33
2022-12-03T16:40:32.270Z,32.25
2022-12-03T16:42:59.330Z,27.70
2022-12-03T16:45:29.256Z,28.25
2022-12-03T16:47:56.178Z,25.77
2022-12-03T16:50:29.555Z,36.80
2022-12-03T16:52:57.650Z,32.90
2022-12-03T16:55:24.784Z,33.22
2022-12-03T16:57:51.668Z,30.05
2022-12-03T17:00:21.736Z,30.67
2022-12-03T17:02:48.987Z,28.73
2022-12-03T17:05:15.915Z,30.17
2022-12-03T17:07:42.766Z,24.08
2022-12-03T17:10:10.347Z,19.33
2022-12-03T17:13:07.203Z,25.15
2022-12-03T17:15:25.425Z,10.60
2022-12-03T17:17:53.311Z,15.88
2022-12-03T17:20:20.212Z,15.80
2022-12-03T17:22:47.369Z,15.00
2022-12-03T17:25:15.562Z,12.50
2022-12-03T17:27:45.402Z,13.00
2022-12-03T17:30:13.514Z,18.38
2022-12-03T17:32:40.569Z,29.85
2022-12-03T17:35:08.323Z,20.30
2022-12-03T17:37:35.371Z,22.30
2022-12-03T17:40:02.748Z,26.17
2022-12-03T17:42:29.553Z,36.67
2022-12-03T17:44:56.461Z,39.50
2022-12-03T17:47:24.484Z,33.15
2022-12-03T17:49:51.647Z,26.75
2022-12-03T17:52:19.000Z,21.73
2022-12-03T17:55:10.019Z,27.52
2022-12-03T17:57:33.887Z,28.33
2022-12-03T18:00:01.521Z,30.13
2022-12-03T18:02:39.434Z,22.20
2022-12-03T18:05:06.579Z,22.42
2022-12-03T18:07:34.122Z,29.40
2022-12-03T18:10:01.239Z,25.08
2022-12-03T18:12:28.024Z,19.17
2022-12-03T18:14:54.872Z,24.58
2022-12-03T18:17:21.659Z,23.88
2022-12-03T18:19:48.515Z,24.15
2022-12-03T18:22:15.524Z,15.93
2022-12-03T18:24:45.022Z,13.65
2022-12-03T18:27:13.305Z,21.38
2022-12-03T18:29:40.146Z,22.85
2022-12-03T18:32:27.168Z,18.80
2022-12-03T18:34:55.599Z,17.63
2022-12-03T18:37:26.183Z,13.88
2022-12-03T18:39:53.734Z,23.65
2022-12-03T18:42:23.564Z,20.92
2022-12-03T18:44:53.783Z,24.08
2022-12-03T18:47:23.593Z,27.92
2022-12-03T18:49:53.958Z,21.80
2022-12-03T18:52:25.420Z,22.52
2022-12-03T18:54:56.501Z,34.80
2022-12-03T18:59:50.072Z,31.40
2022-12-03T19:05:08.560Z,25.90
2022-12-03T19:07:35.569Z,18.98
2022-12-03T19:10:03.174Z,21.77
2022-12-03T19:12:31.194Z,24.33
2022-12-03T19:14:58.252Z,21.42
2022-12-03T19:17:27.192Z,19.05
2022-12-03T19:19:54.980Z,30.10
2022-12-03T19:22:24.596Z,22.05
2022-12-03T19:24:51.584Z,23.33
2022-12-03T19:27:19.039Z,20.27
2022-12-03T19:29:48.817Z,20.25
2022-12-03T19:32:15.891Z,31.60
2022-12-03T19:34:42.808Z,32.45
2022-12-03T19:37:09.801Z,34.10
2022-12-03T19:39:36.873Z,36.47
2022-12-03T19:42:03.849Z,39.90
2022-12-03T19:44:30.849Z,37.03
2022-12-03T19:46:57.664Z,38.70
2022-12-03T19:49:25.837Z,27.33
2022-12-03T19:51:53.012Z,27.15
2022-12-03T19:54:20.003Z,34.42
2022-12-03T19:56:46.779Z,31.80
2022-12-03T19:59:14.574Z,37.03
2022-12-03T20:01:43.147Z,32.28
2022-12-03T20:04:12.060Z,45.20
2022-12-03T20:06:39.625Z,46.00
2022-12-03T20:09:16.601Z,29.98
2022-12-03T20:11:44.654Z,32.60
2022-12-03T20:14:16.423Z,30.13
2022-12-03T20:16:44.655Z,22.42
2022-12-03T20:19:13.761Z,16.88
2022-12-03T20:21:41.622Z,15.20
2022-12-03T20:24:10.291Z,18.70
2022-12-03T20:26:37.133Z,19.13
2022-12-03T20:29:04.103Z,14.95
2022-12-03T20:31:32.064Z,51.22
2022-12-03T20:34:01.492Z,34.97
2022-12-03T20:36:29.925Z,31.20
2022-12-03T20:38:58.210Z,35.33
2022-12-03T20:41:25.459Z,42.53
2022-12-03T20:43:53.616Z,35.63
2022-12-03T20:46:29.376Z,30.00
2022-12-03T20:48:56.971Z,33.75
2022-12-03T20:51:26.000Z,26.80
2022-12-03T20:53:52.864Z,27.65
2022-12-03T20:56:26.916Z,31.88
2022-12-03T20:58:54.463Z,26.35
2022-12-03T21:01:24.403Z,21.02
2022-12-03T21:03:53.191Z,17.13
2022-12-03T21:06:21.341Z,16.35
2022-12-03T21:08:48.860Z,10.90
2022-12-03T21:11:21.741Z,16.98
2022-12-03T21:13:48.754Z,14.50
2022-12-03T21:16:39.500Z,12.80
2022-12-03T21:19:08.348Z,17.20
2022-12-03T21:21:35.632Z,17.98
2022-12-03T21:24:02.594Z,11.48
2022-12-03T21:26:29.531Z,6.75
2022-12-03T21:28:56.474Z,6.90
2022-12-03T21:31:25.893Z,12.38
2022-12-03T21:33:54.312Z,17.63
2022-12-03T21:36:21.411Z,15.63
2022-12-03T21:38:48.674Z,9.43
2022-12-03T21:41:15.690Z,7.97
2022-12-03T21:43:43.510Z,8.50
2022-12-03T21:47:08.407Z,8.07
2022-12-03T21:49:01.788Z,11.60
2022-12-03T21:51:28.620Z,17.52
2022-12-03T21:53:55.646Z,14.43
2022-12-03T21:56:22.503Z,21.70
2022-12-03T21:58:49.586Z,24.20
2022-12-03T22:01:24.340Z,21.25
2022-12-03T22:03:51.724Z,22.95
2022-12-03T22:06:19.300Z,16.70
2022-12-03T22:08:46.911Z,20.42
2022-12-03T22:11:16.996Z,15.02
2022-12-03T22:13:44.553Z,15.43
2022-12-03T22:16:14.014Z,15.57
2022-12-03T22:18:41.840Z,17.58
2022-12-03T22:21:11.905Z,15.93
2022-12-03T22:23:39.082Z,13.77
2022-12-03T22:26:09.135Z,15.18
2022-12-03T22:28:36.026Z,15.20
2022-12-03T22:31:07.424Z,9.95
2022-12-03T22:33:35.107Z,5.05
2022-12-03T22:36:05.141Z,2.70
2022-12-03T22:38:32.589Z,2.50
2022-12-03T22:40:59.852Z,2.05
2022-12-03T22:43:26.764Z,2.35
2022-12-03T22:45:55.470Z,1.20
2022-12-03T22:48:23.653Z,1.00
2022-12-03T22:50:51.792Z,1.60
2022-12-03T22:53:19.685Z,2.15
2022-12-03T22:55:58.721Z,1.83
2022-12-03T22:58:26.853Z,1.73
2022-12-03T23:00:59.776Z,2.83
2022-12-03T23:03:29.767Z,4.18
2022-12-03T23:05:56.967Z,3.80
2022-12-03T23:08:23.962Z,3.90
2022-12-03T23:10:52.826Z,3.30
2022-12-03T23:13:20.923Z,4.13
2022-12-03T23:15:50.140Z,3.85
2022-12-03T23:18:18.194Z,5.10
2022-12-03T23:20:47.148Z,7.88
2022-12-03T23:23:15.083Z,6.55
2022-12-03T23:25:42.328Z,6.03
2022-12-03T23:28:10.213Z,6.72
2022-12-03T23:30:39.434Z,5.28
2022-12-03T23:33:06.766Z,5.20
2022-12-03T23:35:34.093Z,4.78
2022-12-03T23:38:00.881Z,7.97
2022-12-03T23:40:27.769Z,7.07
2022-12-03T23:42:55.126Z,6.95
2022-12-03T23:45:21.955Z,6.18
2022-12-03T23:47:50.459Z,6.32
2022-12-03T23:50:20.528Z,6.60
2022-12-03T23:52:47.231Z,8.43
2022-12-03T23:55:14.044Z,6.40
2022-12-03T23:57:41.119Z,7.47
